Bookmark and Share
Track history (hours):
 

Palmyra I

Last reported at 2012-Oct-06 23:26 UTC. Time now 2014-Apr-19 22:20 UTC.
Position N 35°58' E 027°35'.
Warning: this ship's position is years out of date!

Length 117 m; draft 7.8 m.

Type: Cargo ship. MMSI: 214181623.

NotesDate/timePositionNaut miles runAvg speedWind from/ knotsBaromVisibWave heightAir tempDewpointWater temp
2012-Oct-06 23:26N 35°58' E 027°35'1212.3
2012-Oct-06 22:29N 36°08' E 027°27'1112.0
2012-Oct-06 21:33N 36°17' E 027°18'1211.9
2012-Oct-06 20:33N 36°26' E 027°09'1212.0
2012-Oct-06 19:33N 36°35' E 026°60'4812.1
2012-Oct-06 15:33N 37°11' E 026°20'1211.6
2012-Oct-06 14:32N 37°20' E 026°09'1211.8
2012-Oct-06 13:33N 37°27' E 025°58'1111.2
2012-Oct-06 12:32N 37°38' E 025°53'1111.1
2012-Oct-06 11:33N 37°49' E 025°51'1111.4
2012-Oct-06 10:36N 37°60' E 025°50'1211.7
2012-Oct-06 09:33N 38°12' E 025°47'1211.8
2012-Oct-06 08:33N 38°23' E 025°45'1211.7
2012-Oct-06 07:33N 38°35' E 025°45'  
2012-Oct-03 07:23N 43°42' E 034°05'1012.0
2012-Oct-03 06:33N 43°48' E 034°16'1212.3
2012-Oct-03 05:33N 43°54' E 034°30'1212.4
2012-Oct-03 04:36N 44°01' E 034°44'  
2012-Sep-29 03:33N 44°40' E 035°51'  

Dump ship's entire track history

sailing weather and tide predictions

Palmyra I — ERPW — position and weather